sensor_id;sensor_type;location;lat;lon;timestamp;temperature;humidity
65072;DHT22;51663;52.310;17.016;2022-12-07T00:00:41;28.50;25.10
65072;DHT22;51663;52.310;17.016;2022-12-07T00:03:46;28.50;25.00
65072;DHT22;51663;52.310;17.016;2022-12-07T00:06:52;28.40;25.00
65072;DHT22;51663;52.310;17.016;2022-12-07T00:09:55;28.30;25.00
65072;DHT22;51663;52.310;17.016;2022-12-07T00:12:56;28.30;25.10
65072;DHT22;51663;52.310;17.016;2022-12-07T00:16:07;28.30;25.10
65072;DHT22;51663;52.310;17.016;2022-12-07T00:19:11;28.30;25.10
65072;DHT22;51663;52.310;17.016;2022-12-07T00:22:14;28.00;25.30
65072;DHT22;51663;52.310;17.016;2022-12-07T00:25:15;28.20;25.30
65072;DHT22;51663;52.310;17.016;2022-12-07T00:28:18;28.00;25.40
65072;DHT22;51663;52.310;17.016;2022-12-07T00:31:22;27.80;25.50
65072;DHT22;51663;52.310;17.016;2022-12-07T00:34:24;27.90;25.50
65072;DHT22;51663;52.310;17.016;2022-12-07T00:37:26;27.80;25.70
65072;DHT22;51663;52.310;17.016;2022-12-07T00:40:28;27.80;25.60
65072;DHT22;51663;52.310;17.016;2022-12-07T00:43:31;28.00;25.50
65072;DHT22;51663;52.310;17.016;2022-12-07T00:46:33;27.80;25.60
65072;DHT22;51663;52.310;17.016;2022-12-07T00:49:35;27.80;25.70
65072;DHT22;51663;52.310;17.016;2022-12-07T00:52:37;27.90;25.70
65072;DHT22;51663;52.310;17.016;2022-12-07T00:55:39;27.80;25.80
65072;DHT22;51663;52.310;17.016;2022-12-07T00:58:41;27.60;25.90
65072;DHT22;51663;52.310;17.016;2022-12-07T01:01:43;27.60;25.90
65072;DHT22;51663;52.310;17.016;2022-12-07T01:04:46;27.50;25.90
65072;DHT22;51663;52.310;17.016;2022-12-07T01:07:48;27.80;26.00
65072;DHT22;51663;52.310;17.016;2022-12-07T01:11:01;27.80;25.90
65072;DHT22;51663;52.310;17.016;2022-12-07T01:14:04;27.80;26.00
65072;DHT22;51663;52.310;17.016;2022-12-07T01:17:06;27.60;26.00
65072;DHT22;51663;52.310;17.016;2022-12-07T01:20:08;27.60;26.00
65072;DHT22;51663;52.310;17.016;2022-12-07T01:23:10;27.70;26.00
65072;DHT22;51663;52.310;17.016;2022-12-07T01:26:17;27.50;26.10
65072;DHT22;51663;52.310;17.016;2022-12-07T01:29:22;27.60;26.10
65072;DHT22;51663;52.310;17.016;2022-12-07T01:32:24;27.40;26.10
65072;DHT22;51663;52.310;17.016;2022-12-07T01:35:26;27.60;25.90
65072;DHT22;51663;52.310;17.016;2022-12-07T01:38:30;27.70;26.10
65072;DHT22;51663;52.310;17.016;2022-12-07T01:41:34;27.70;26.10
65072;DHT22;51663;52.310;17.016;2022-12-07T01:48:20;27.90;25.70
65072;DHT22;51663;52.310;17.016;2022-12-07T01:51:24;28.00;25.60
65072;DHT22;51663;52.310;17.016;2022-12-07T01:54:28;28.10;25.60
65072;DHT22;51663;52.310;17.016;2022-12-07T01:57:35;27.90;25.70
65072;DHT22;51663;52.310;17.016;2022-12-07T02:00:39;28.00;25.70
65072;DHT22;51663;52.310;17.016;2022-12-07T02:03:44;28.00;25.70
65072;DHT22;51663;52.310;17.016;2022-12-07T02:06:47;28.00;25.80
65072;DHT22;51663;52.310;17.016;2022-12-07T02:09:50;28.20;25.70
65072;DHT22;51663;52.310;17.016;2022-12-07T02:13:01;28.10;25.50
65072;DHT22;51663;52.310;17.016;2022-12-07T02:19:56;27.90;25.60
65072;DHT22;51663;52.310;17.016;2022-12-07T02:30:21;28.20;25.60
65072;DHT22;51663;52.310;17.016;2022-12-07T02:33:28;28.40;25.40
65072;DHT22;51663;52.310;17.016;2022-12-07T02:36:39;28.10;25.40
65072;DHT22;51663;52.310;17.016;2022-12-07T02:40:08;28.30;25.30
65072;DHT22;51663;52.310;17.016;2022-12-07T02:46:22;28.40;25.30
65072;DHT22;51663;52.310;17.016;2022-12-07T02:49:28;28.30;25.10
65072;DHT22;51663;52.310;17.016;2022-12-07T02:52:31;28.40;25.30
65072;DHT22;51663;52.310;17.016;2022-12-07T02:55:38;28.30;25.20
65072;DHT22;51663;52.310;17.016;2022-12-07T02:59:07;28.60;25.20
65072;DHT22;51663;52.310;17.016;2022-12-07T03:05:45;28.60;25.10
65072;DHT22;51663;52.310;17.016;2022-12-07T03:09:27;28.60;25.00
65072;DHT22;51663;52.310;17.016;2022-12-07T03:13:04;28.60;25.00
65072;DHT22;51663;52.310;17.016;2022-12-07T03:16:31;28.70;24.90
65072;DHT22;51663;52.310;17.016;2022-12-07T03:19:36;28.70;24.80
65072;DHT22;51663;52.310;17.016;2022-12-07T03:22:40;28.70;24.90
65072;DHT22;51663;52.310;17.016;2022-12-07T03:25:49;28.70;24.80
65072;DHT22;51663;52.310;17.016;2022-12-07T03:29:19;28.40;24.80
65072;DHT22;51663;52.310;17.016;2022-12-07T03:32:29;28.50;24.80
65072;DHT22;51663;52.310;17.016;2022-12-07T03:35:40;28.50;24.80
65072;DHT22;51663;52.310;17.016;2022-12-07T03:39:00;28.50;24.70
65072;DHT22;51663;52.310;17.016;2022-12-07T03:42:05;28.30;24.80
65072;DHT22;51663;52.310;17.016;2022-12-07T03:45:10;28.00;24.90
65072;DHT22;51663;52.310;17.016;2022-12-07T03:48:22;28.20;24.90
65072;DHT22;51663;52.310;17.016;2022-12-07T03:51:39;28.40;24.80
65072;DHT22;51663;52.310;17.016;2022-12-07T03:58:09;28.20;24.70
65072;DHT22;51663;52.310;17.016;2022-12-07T04:01:12;28.30;24.80
65072;DHT22;51663;52.310;17.016;2022-12-07T04:04:14;28.40;24.80
65072;DHT22;51663;52.310;17.016;2022-12-07T04:07:16;28.60;24.80
65072;DHT22;51663;52.310;17.016;2022-12-07T04:10:19;28.60;24.70
65072;DHT22;51663;52.310;17.016;2022-12-07T04:13:21;28.60;24.60
65072;DHT22;51663;52.310;17.016;2022-12-07T04:16:23;28.70;24.70
65072;DHT22;51663;52.310;17.016;2022-12-07T04:19:30;28.70;24.70
65072;DHT22;51663;52.310;17.016;2022-12-07T04:22:32;28.80;24.50
65072;DHT22;51663;52.310;17.016;2022-12-07T04:25:34;28.80;24.60
65072;DHT22;51663;52.310;17.016;2022-12-07T04:28:37;28.80;24.50
65072;DHT22;51663;52.310;17.016;2022-12-07T04:31:39;28.70;24.30
65072;DHT22;51663;52.310;17.016;2022-12-07T04:34:41;28.70;24.30
65072;DHT22;51663;52.310;17.016;2022-12-07T04:37:45;28.80;24.40
65072;DHT22;51663;52.310;17.016;2022-12-07T04:40:48;28.70;24.40
65072;DHT22;51663;52.310;17.016;2022-12-07T04:43:49;28.80;24.60
65072;DHT22;51663;52.310;17.016;2022-12-07T04:46:52;28.60;24.50
65072;DHT22;51663;52.310;17.016;2022-12-07T04:49:55;28.70;24.50
65072;DHT22;51663;52.310;17.016;2022-12-07T04:52:57;28.60;24.40
65072;DHT22;51663;52.310;17.016;2022-12-07T04:55:59;28.70;24.40
65072;DHT22;51663;52.310;17.016;2022-12-07T04:59:03;28.90;24.40
65072;DHT22;51663;52.310;17.016;2022-12-07T05:02:05;28.90;24.40
65072;DHT22;51663;52.310;17.016;2022-12-07T05:05:08;28.60;24.30
65072;DHT22;51663;52.310;17.016;2022-12-07T05:08:10;28.70;24.40
65072;DHT22;51663;52.310;17.016;2022-12-07T05:11:12;28.70;24.50
65072;DHT22;51663;52.310;17.016;2022-12-07T05:14:35;28.80;24.50
65072;DHT22;51663;52.310;17.016;2022-12-07T05:17:37;28.80;24.40
65072;DHT22;51663;52.310;17.016;2022-12-07T05:20:40;28.70;24.30
65072;DHT22;51663;52.310;17.016;2022-12-07T05:23:43;28.80;24.50
65072;DHT22;51663;52.310;17.016;2022-12-07T05:26:45;28.90;24.60
65072;DHT22;51663;52.310;17.016;2022-12-07T05:29:50;28.90;24.40
65072;DHT22;51663;52.310;17.016;2022-12-07T05:32:52;28.50;24.50
65072;DHT22;51663;52.310;17.016;2022-12-07T05:35:54;28.60;24.60
65072;DHT22;51663;52.310;17.016;2022-12-07T05:38:57;28.70;24.60
65072;DHT22;51663;52.310;17.016;2022-12-07T05:41:59;28.70;24.40
65072;DHT22;51663;52.310;17.016;2022-12-07T05:45:14;28.60;24.60
65072;DHT22;51663;52.310;17.016;2022-12-07T05:48:16;28.70;24.50
65072;DHT22;51663;52.310;17.016;2022-12-07T05:51:18;28.70;24.50
65072;DHT22;51663;52.310;17.016;2022-12-07T05:54:20;28.80;24.60
65072;DHT22;51663;52.310;17.016;2022-12-07T05:57:22;28.70;24.50
65072;DHT22;51663;52.310;17.016;2022-12-07T06:00:25;28.70;24.50
65072;DHT22;51663;52.310;17.016;2022-12-07T06:03:27;28.80;24.50
65072;DHT22;51663;52.310;17.016;2022-12-07T06:06:29;28.80;24.60
65072;DHT22;51663;52.310;17.016;2022-12-07T06:09:31;28.70;24.40
65072;DHT22;51663;52.310;17.016;2022-12-07T06:12:34;28.80;24.60
65072;DHT22;51663;52.310;17.016;2022-12-07T06:15:36;28.80;24.50
65072;DHT22;51663;52.310;17.016;2022-12-07T06:18:41;28.80;24.50
65072;DHT22;51663;52.310;17.016;2022-12-07T06:21:43;28.90;24.50
65072;DHT22;51663;52.310;17.016;2022-12-07T06:24:45;28.90;24.50
65072;DHT22;51663;52.310;17.016;2022-12-07T06:27:47;28.80;24.50
65072;DHT22;51663;52.310;17.016;2022-12-07T06:30:57;28.70;24.60
65072;DHT22;51663;52.310;17.016;2022-12-07T06:34:02;28.70;24.60
65072;DHT22;51663;52.310;17.016;2022-12-07T06:37:05;28.70;24.60
65072;DHT22;51663;52.310;17.016;2022-12-07T06:40:07;28.70;24.70
65072;DHT22;51663;52.310;17.016;2022-12-07T06:43:10;28.60;24.60
65072;DHT22;51663;52.310;17.016;2022-12-07T06:46:12;28.60;24.60
65072;DHT22;51663;52.310;17.016;2022-12-07T06:49:15;28.70;24.60
65072;DHT22;51663;52.310;17.016;2022-12-07T06:52:17;28.60;25.10
65072;DHT22;51663;52.310;17.016;2022-12-07T06:55:19;28.60;24.60
65072;DHT22;51663;52.310;17.016;2022-12-07T06:58:21;28.50;24.70
65072;DHT22;51663;52.310;17.016;2022-12-07T07:01:23;28.50;24.60
65072;DHT22;51663;52.310;17.016;2022-12-07T07:04:25;28.50;24.70
65072;DHT22;51663;52.310;17.016;2022-12-07T07:07:27;28.50;24.80
65072;DHT22;51663;52.310;17.016;2022-12-07T07:10:30;28.60;24.60
65072;DHT22;51663;52.310;17.016;2022-12-07T07:13:32;28.60;24.60
65072;DHT22;51663;52.310;17.016;2022-12-07T07:16:34;28.60;24.50
65072;DHT22;51663;52.310;17.016;2022-12-07T07:19:36;28.60;24.50
65072;DHT22;51663;52.310;17.016;2022-12-07T07:22:39;28.70;24.70
65072;DHT22;51663;52.310;17.016;2022-12-07T07:25:41;28.80;24.60
65072;DHT22;51663;52.310;17.016;2022-12-07T07:28:43;28.70;24.50
65072;DHT22;51663;52.310;17.016;2022-12-07T07:31:46;28.60;24.50
65072;DHT22;51663;52.310;17.016;2022-12-07T07:34:48;28.60;24.60
65072;DHT22;51663;52.310;17.016;2022-12-07T07:37:50;28.50;24.60
65072;DHT22;51663;52.310;17.016;2022-12-07T07:40:52;28.50;24.80
65072;DHT22;51663;52.310;17.016;2022-12-07T07:43:54;28.60;24.70
65072;DHT22;51663;52.310;17.016;2022-12-07T07:46:56;28.60;24.60
65072;DHT22;51663;52.310;17.016;2022-12-07T07:49:59;28.60;25.00
65072;DHT22;51663;52.310;17.016;2022-12-07T07:53:01;28.60;24.60
65072;DHT22;51663;52.310;17.016;2022-12-07T07:56:03;28.60;24.50
65072;DHT22;51663;52.310;17.016;2022-12-07T07:59:05;28.50;24.60
65072;DHT22;51663;52.310;17.016;2022-12-07T08:02:14;28.40;24.40
65072;DHT22;51663;52.310;17.016;2022-12-07T08:05:16;28.00;24.60
65072;DHT22;51663;52.310;17.016;2022-12-07T08:08:19;28.20;24.50
65072;DHT22;51663;52.310;17.016;2022-12-07T08:11:21;28.30;24.60
65072;DHT22;51663;52.310;17.016;2022-12-07T08:14:24;28.40;24.40
65072;DHT22;51663;52.310;17.016;2022-12-07T08:17:26;28.40;24.10
65072;DHT22;51663;52.310;17.016;2022-12-07T08:20:31;28.40;24.20
65072;DHT22;51663;52.310;17.016;2022-12-07T08:23:33;28.50;24.10
65072;DHT22;51663;52.310;17.016;2022-12-07T08:26:41;28.60;24.10
65072;DHT22;51663;52.310;17.016;2022-12-07T08:29:43;28.60;24.10
65072;DHT22;51663;52.310;17.016;2022-12-07T08:32:46;28.80;23.80
65072;DHT22;51663;52.310;17.016;2022-12-07T08:35:48;28.70;23.70
65072;DHT22;51663;52.310;17.016;2022-12-07T08:38:51;28.70;23.90
65072;DHT22;51663;52.310;17.016;2022-12-07T08:42:13;28.30;23.80
65072;DHT22;51663;52.310;17.016;2022-12-07T08:45:17;28.20;24.10
65072;DHT22;51663;52.310;17.016;2022-12-07T08:48:27;28.00;24.10
65072;DHT22;51663;52.310;17.016;2022-12-07T08:51:29;28.40;23.80
65072;DHT22;51663;52.310;17.016;2022-12-07T08:54:34;28.50;23.80
65072;DHT22;51663;52.310;17.016;2022-12-07T08:57:38;28.50;23.60
65072;DHT22;51663;52.310;17.016;2022-12-07T09:00:40;27.60;23.90
65072;DHT22;51663;52.310;17.016;2022-12-07T09:03:43;27.60;24.30
65072;DHT22;51663;52.310;17.016;2022-12-07T09:06:45;27.80;24.20
65072;DHT22;51663;52.310;17.016;2022-12-07T09:09:48;27.50;24.40
65072;DHT22;51663;52.310;17.016;2022-12-07T09:12:50;27.40;24.60
65072;DHT22;51663;52.310;17.016;2022-12-07T09:15:53;27.40;25.00
65072;DHT22;51663;52.310;17.016;2022-12-07T09:18:55;27.20;25.00
65072;DHT22;51663;52.310;17.016;2022-12-07T09:21:57;27.20;24.80
65072;DHT22;51663;52.310;17.016;2022-12-07T09:24:59;26.80;25.00
65072;DHT22;51663;52.310;17.016;2022-12-07T09:28:02;26.90;25.70
65072;DHT22;51663;52.310;17.016;2022-12-07T09:31:04;27.00;25.40
65072;DHT22;51663;52.310;17.016;2022-12-07T09:34:25;27.10;25.20
65072;DHT22;51663;52.310;17.016;2022-12-07T09:37:28;26.20;25.40
65072;DHT22;51663;52.310;17.016;2022-12-07T09:40:30;26.50;25.70
65072;DHT22;51663;52.310;17.016;2022-12-07T09:43:35;26.40;25.30
65072;DHT22;51663;52.310;17.016;2022-12-07T09:46:40;26.70;25.50
65072;DHT22;51663;52.310;17.016;2022-12-07T09:49:43;26.70;25.40
65072;DHT22;51663;52.310;17.016;2022-12-07T09:52:47;26.30;25.70
65072;DHT22;51663;52.310;17.016;2022-12-07T09:55:49;26.30;25.70
65072;DHT22;51663;52.310;17.016;2022-12-07T09:59:00;26.20;25.70
65072;DHT22;51663;52.310;17.016;2022-12-07T10:02:38;26.30;25.80
65072;DHT22;51663;52.310;17.016;2022-12-07T10:05:45;26.30;25.40
65072;DHT22;51663;52.310;17.016;2022-12-07T10:08:48;26.90;25.20
65072;DHT22;51663;52.310;17.016;2022-12-07T10:12:08;26.80;25.50
65072;DHT22;51663;52.310;17.016;2022-12-07T10:15:13;26.60;25.30
65072;DHT22;51663;52.310;17.016;2022-12-07T10:18:42;26.80;25.30
65072;DHT22;51663;52.310;17.016;2022-12-07T10:22:05;26.40;25.70
65072;DHT22;51663;52.310;17.016;2022-12-07T10:25:09;26.20;25.50
65072;DHT22;51663;52.310;17.016;2022-12-07T10:28:19;26.20;26.10
65072;DHT22;51663;52.310;17.016;2022-12-07T10:31:22;25.80;26.10
65072;DHT22;51663;52.310;17.016;2022-12-07T10:34:27;25.80;26.70
65072;DHT22;51663;52.310;17.016;2022-12-07T10:37:40;26.00;26.10
65072;DHT22;51663;52.310;17.016;2022-12-07T10:40:42;25.80;26.30
65072;DHT22;51663;52.310;17.016;2022-12-07T10:43:50;26.00;26.00
65072;DHT22;51663;52.310;17.016;2022-12-07T11:06:33;26.20;26.20
65072;DHT22;51663;52.310;17.016;2022-12-07T11:16:52;27.30;25.40
65072;DHT22;51663;52.310;17.016;2022-12-07T11:20:20;27.60;25.30
65072;DHT22;51663;52.310;17.016;2022-12-07T11:30:27;27.40;25.40
65072;DHT22;51663;52.310;17.016;2022-12-07T11:33:47;27.40;25.20
65072;DHT22;51663;52.310;17.016;2022-12-07T11:36:54;27.80;24.80
65072;DHT22;51663;52.310;17.016;2022-12-07T11:43:30;27.90;24.80
65072;DHT22;51663;52.310;17.016;2022-12-07T11:46:44;27.80;25.00
65072;DHT22;51663;52.310;17.016;2022-12-07T11:49:54;27.90;25.10
65072;DHT22;51663;52.310;17.016;2022-12-07T11:53:03;27.90;24.90
65072;DHT22;51663;52.310;17.016;2022-12-07T11:56:16;27.90;24.90
65072;DHT22;51663;52.310;17.016;2022-12-07T11:59:38;28.00;24.90
65072;DHT22;51663;52.310;17.016;2022-12-07T12:02:55;28.20;24.90
65072;DHT22;51663;52.310;17.016;2022-12-07T12:06:00;27.90;25.00
65072;DHT22;51663;52.310;17.016;2022-12-07T12:26:13;28.10;25.10
65072;DHT22;51663;52.310;17.016;2022-12-07T12:29:28;28.20;25.30
65072;DHT22;51663;52.310;17.016;2022-12-07T12:32:42;28.50;25.00
65072;DHT22;51663;52.310;17.016;2022-12-07T12:39:18;28.40;24.90
65072;DHT22;51663;52.310;17.016;2022-12-07T12:42:21;28.70;24.80
65072;DHT22;51663;52.310;17.016;2022-12-07T12:45:43;28.80;24.50
65072;DHT22;51663;52.310;17.016;2022-12-07T12:48:47;28.90;24.50
65072;DHT22;51663;52.310;17.016;2022-12-07T12:51:52;28.70;24.50
65072;DHT22;51663;52.310;17.016;2022-12-07T13:08:03;28.40;24.50
65072;DHT22;51663;52.310;17.016;2022-12-07T13:11:18;28.40;24.70
65072;DHT22;51663;52.310;17.016;2022-12-07T13:24:00;28.00;25.00
65072;DHT22;51663;52.310;17.016;2022-12-07T13:27:02;28.30;24.80
65072;DHT22;51663;52.310;17.016;2022-12-07T13:30:15;28.00;24.70
65072;DHT22;51663;52.310;17.016;2022-12-07T13:33:18;27.90;24.90
65072;DHT22;51663;52.310;17.016;2022-12-07T13:36:27;28.30;24.90
65072;DHT22;51663;52.310;17.016;2022-12-07T13:39:29;28.20;24.80
65072;DHT22;51663;52.310;17.016;2022-12-07T13:42:33;28.10;24.70
65072;DHT22;51663;52.310;17.016;2022-12-07T13:45:36;28.10;24.60
65072;DHT22;51663;52.310;17.016;2022-12-07T13:48:51;27.90;24.80
65072;DHT22;51663;52.310;17.016;2022-12-07T13:51:55;28.00;24.70
65072;DHT22;51663;52.310;17.016;2022-12-07T13:55:15;28.10;24.60
65072;DHT22;51663;52.310;17.016;2022-12-07T13:58:18;27.80;24.60
65072;DHT22;51663;52.310;17.016;2022-12-07T14:01:20;27.80;24.70
65072;DHT22;51663;52.310;17.016;2022-12-07T14:04:32;27.50;24.80
65072;DHT22;51663;52.310;17.016;2022-12-07T14:07:34;27.60;24.70
65072;DHT22;51663;52.310;17.016;2022-12-07T14:17:13;27.20;24.60
65072;DHT22;51663;52.310;17.016;2022-12-07T14:20:37;27.50;24.90
65072;DHT22;51663;52.310;17.016;2022-12-07T14:23:40;27.10;24.90
65072;DHT22;51663;52.310;17.016;2022-12-07T14:26:44;27.30;25.00
65072;DHT22;51663;52.310;17.016;2022-12-07T14:29:47;27.40;24.90
65072;DHT22;51663;52.310;17.016;2022-12-07T14:32:56;27.10;25.60
65072;DHT22;51663;52.310;17.016;2022-12-07T14:35:59;27.20;25.20
65072;DHT22;51663;52.310;17.016;2022-12-07T14:39:03;27.40;25.00
65072;DHT22;51663;52.310;17.016;2022-12-07T14:42:14;27.60;24.90
65072;DHT22;51663;52.310;17.016;2022-12-07T14:45:18;27.60;24.60
65072;DHT22;51663;52.310;17.016;2022-12-07T14:48:21;27.00;24.70
65072;DHT22;51663;52.310;17.016;2022-12-07T14:51:45;27.00;24.90
65072;DHT22;51663;52.310;17.016;2022-12-07T14:55:24;26.40;25.00
65072;DHT22;51663;52.310;17.016;2022-12-07T14:58:27;26.40;25.10
65072;DHT22;51663;52.310;17.016;2022-12-07T15:01:29;26.50;25.10
65072;DHT22;51663;52.310;17.016;2022-12-07T15:04:31;26.10;25.10
65072;DHT22;51663;52.310;17.016;2022-12-07T15:07:33;26.20;25.30
65072;DHT22;51663;52.310;17.016;2022-12-07T15:10:36;26.20;25.10
65072;DHT22;51663;52.310;17.016;2022-12-07T15:13:40;26.20;25.00
65072;DHT22;51663;52.310;17.016;2022-12-07T15:17:01;26.20;25.10
65072;DHT22;51663;52.310;17.016;2022-12-07T15:20:20;26.00;25.10
65072;DHT22;51663;52.310;17.016;2022-12-07T15:23:22;26.20;24.80
65072;DHT22;51663;52.310;17.016;2022-12-07T15:26:24;25.90;24.70
65072;DHT22;51663;52.310;17.016;2022-12-07T15:29:26;26.10;24.90
65072;DHT22;51663;52.310;17.016;2022-12-07T15:32:28;26.30;24.60
65072;DHT22;51663;52.310;17.016;2022-12-07T15:35:30;26.50;24.40
65072;DHT22;51663;52.310;17.016;2022-12-07T15:38:33;26.50;24.20
65072;DHT22;51663;52.310;17.016;2022-12-07T15:41:55;26.50;24.20
65072;DHT22;51663;52.310;17.016;2022-12-07T15:44:57;26.60;24.00
65072;DHT22;51663;52.310;17.016;2022-12-07T15:48:06;26.60;24.00
65072;DHT22;51663;52.310;17.016;2022-12-07T15:51:28;26.60;23.90
65072;DHT22;51663;52.310;17.016;2022-12-07T15:54:32;26.60;24.00
65072;DHT22;51663;52.310;17.016;2022-12-07T15:57:36;26.70;23.90
65072;DHT22;51663;52.310;17.016;2022-12-07T16:00:38;26.70;24.00
65072;DHT22;51663;52.310;17.016;2022-12-07T16:03:42;26.70;23.90
65072;DHT22;51663;52.310;17.016;2022-12-07T16:06:44;26.90;24.00
65072;DHT22;51663;52.310;17.016;2022-12-07T16:09:47;26.90;23.70
65072;DHT22;51663;52.310;17.016;2022-12-07T16:12:51;27.00;23.60
65072;DHT22;51663;52.310;17.016;2022-12-07T16:15:53;27.00;23.60
65072;DHT22;51663;52.310;17.016;2022-12-07T16:18:58;27.00;23.50
65072;DHT22;51663;52.310;17.016;2022-12-07T16:22:01;27.00;23.30
65072;DHT22;51663;52.310;17.016;2022-12-07T16:25:03;26.90;23.40
65072;DHT22;51663;52.310;17.016;2022-12-07T16:28:06;26.90;23.50
65072;DHT22;51663;52.310;17.016;2022-12-07T16:31:13;26.90;24.00
65072;DHT22;51663;52.310;17.016;2022-12-07T16:34:17;26.80;23.50
65072;DHT22;51663;52.310;17.016;2022-12-07T16:37:19;26.70;23.60
65072;DHT22;51663;52.310;17.016;2022-12-07T16:40:21;26.70;23.70
65072;DHT22;51663;52.310;17.016;2022-12-07T16:43:23;26.60;23.70
65072;DHT22;51663;52.310;17.016;2022-12-07T16:46:25;26.50;23.80
65072;DHT22;51663;52.310;17.016;2022-12-07T16:49:27;26.60;23.80
65072;DHT22;51663;52.310;17.016;2022-12-07T16:52:29;26.70;23.70
65072;DHT22;51663;52.310;17.016;2022-12-07T16:55:34;26.80;23.60
65072;DHT22;51663;52.310;17.016;2022-12-07T16:58:36;26.50;23.70
65072;DHT22;51663;52.310;17.016;2022-12-07T17:01:38;26.70;23.60
65072;DHT22;51663;52.310;17.016;2022-12-07T17:04:41;26.70;23.70
65072;DHT22;51663;52.310;17.016;2022-12-07T17:07:44;26.80;23.60
65072;DHT22;51663;52.310;17.016;2022-12-07T17:10:46;26.80;23.70
65072;DHT22;51663;52.310;17.016;2022-12-07T17:13:49;26.90;23.70
65072;DHT22;51663;52.310;17.016;2022-12-07T17:17:09;26.80;23.70
65072;DHT22;51663;52.310;17.016;2022-12-07T17:20:12;26.80;23.70
65072;DHT22;51663;52.310;17.016;2022-12-07T17:23:15;26.80;23.70
65072;DHT22;51663;52.310;17.016;2022-12-07T17:26:20;26.80;23.70
65072;DHT22;51663;52.310;17.016;2022-12-07T17:29:22;26.90;23.50
65072;DHT22;51663;52.310;17.016;2022-12-07T17:32:24;26.70;23.40
65072;DHT22;51663;52.310;17.016;2022-12-07T17:35:27;26.50;23.80
65072;DHT22;51663;52.310;17.016;2022-12-07T17:38:29;26.40;23.90
65072;DHT22;51663;52.310;17.016;2022-12-07T17:41:31;26.20;23.90
65072;DHT22;51663;52.310;17.016;2022-12-07T17:44:51;25.80;24.00
65072;DHT22;51663;52.310;17.016;2022-12-07T17:47:54;25.90;24.40
65072;DHT22;51663;52.310;17.016;2022-12-07T17:50:59;26.10;24.40
65072;DHT22;51663;52.310;17.016;2022-12-07T17:54:20;26.20;24.20
65072;DHT22;51663;52.310;17.016;2022-12-07T17:57:22;26.10;24.00
65072;DHT22;51663;52.310;17.016;2022-12-07T18:00:26;26.10;23.80
65072;DHT22;51663;52.310;17.016;2022-12-07T18:03:28;25.90;24.30
65072;DHT22;51663;52.310;17.016;2022-12-07T18:06:30;26.20;24.10
65072;DHT22;51663;52.310;17.016;2022-12-07T18:09:33;26.50;23.70
65072;DHT22;51663;52.310;17.016;2022-12-07T18:12:35;26.20;23.80
65072;DHT22;51663;52.310;17.016;2022-12-07T18:15:37;26.50;23.70
65072;DHT22;51663;52.310;17.016;2022-12-07T18:18:40;26.20;23.70
65072;DHT22;51663;52.310;17.016;2022-12-07T18:21:47;26.10;23.80
65072;DHT22;51663;52.310;17.016;2022-12-07T18:24:49;25.80;24.10
65072;DHT22;51663;52.310;17.016;2022-12-07T18:27:52;26.10;24.00
65072;DHT22;51663;52.310;17.016;2022-12-07T18:30:54;26.30;23.80
65072;DHT22;51663;52.310;17.016;2022-12-07T18:34:18;26.40;23.80
65072;DHT22;51663;52.310;17.016;2022-12-07T18:37:20;26.10;23.80
65072;DHT22;51663;52.310;17.016;2022-12-07T18:40:22;26.00;24.10
65072;DHT22;51663;52.310;17.016;2022-12-07T18:43:24;26.30;24.10
65072;DHT22;51663;52.310;17.016;2022-12-07T18:46:27;26.40;24.00
65072;DHT22;51663;52.310;17.016;2022-12-07T18:49:29;26.20;23.90
65072;DHT22;51663;52.310;17.016;2022-12-07T18:52:31;26.00;24.10
65072;DHT22;51663;52.310;17.016;2022-12-07T18:55:33;25.90;24.50
65072;DHT22;51663;52.310;17.016;2022-12-07T18:58:35;26.30;24.10
65072;DHT22;51663;52.310;17.016;2022-12-07T19:01:38;26.10;24.80
65072;DHT22;51663;52.310;17.016;2022-12-07T19:04:40;26.50;24.00
65072;DHT22;51663;52.310;17.016;2022-12-07T19:07:44;26.40;23.90
65072;DHT22;51663;52.310;17.016;2022-12-07T19:10:46;26.50;24.10
65072;DHT22;51663;52.310;17.016;2022-12-07T19:13:50;25.80;24.40
65072;DHT22;51663;52.310;17.016;2022-12-07T19:17:01;25.90;24.60
65072;DHT22;51663;52.310;17.016;2022-12-07T19:20:08;26.30;24.20
65072;DHT22;51663;52.310;17.016;2022-12-07T19:23:10;26.40;24.00
65072;DHT22;51663;52.310;17.016;2022-12-07T19:26:12;26.60;23.90
65072;DHT22;51663;52.310;17.016;2022-12-07T19:29:14;26.40;24.10
65072;DHT22;51663;52.310;17.016;2022-12-07T19:32:17;26.40;24.20
65072;DHT22;51663;52.310;17.016;2022-12-07T19:35:19;26.30;24.70
65072;DHT22;51663;52.310;17.016;2022-12-07T19:38:21;26.60;23.90
65072;DHT22;51663;52.310;17.016;2022-12-07T19:41:23;26.70;23.70
65072;DHT22;51663;52.310;17.016;2022-12-07T19:44:39;26.70;23.60
65072;DHT22;51663;52.310;17.016;2022-12-07T19:47:41;26.60;23.40
65072;DHT22;51663;52.310;17.016;2022-12-07T19:50:43;26.80;23.30
65072;DHT22;51663;52.310;17.016;2022-12-07T19:53:45;26.80;23.40
65072;DHT22;51663;52.310;17.016;2022-12-07T19:56:49;26.70;23.20
65072;DHT22;51663;52.310;17.016;2022-12-07T19:59:51;26.10;23.80
65072;DHT22;51663;52.310;17.016;2022-12-07T20:02:53;26.30;24.00
65072;DHT22;51663;52.310;17.016;2022-12-07T20:05:56;26.40;24.40
65072;DHT22;51663;52.310;17.016;2022-12-07T20:08:58;26.40;23.80
65072;DHT22;51663;52.310;17.016;2022-12-07T20:12:01;26.60;23.80
65072;DHT22;51663;52.310;17.016;2022-12-07T20:15:22;26.60;23.50
65072;DHT22;51663;52.310;17.016;2022-12-07T20:18:24;26.90;23.40
65072;DHT22;51663;52.310;17.016;2022-12-07T20:21:27;26.70;23.30
65072;DHT22;51663;52.310;17.016;2022-12-07T20:24:30;26.90;23.40
65072;DHT22;51663;52.310;17.016;2022-12-07T20:27:36;27.00;23.10
65072;DHT22;51663;52.310;17.016;2022-12-07T20:30:51;26.40;23.10
65072;DHT22;51663;52.310;17.016;2022-12-07T20:33:54;26.50;23.20
65072;DHT22;51663;52.310;17.016;2022-12-07T20:36:58;26.60;23.10
65072;DHT22;51663;52.310;17.016;2022-12-07T20:40:01;26.50;23.20
65072;DHT22;51663;52.310;17.016;2022-12-07T20:43:03;26.60;23.00
65072;DHT22;51663;52.310;17.016;2022-12-07T20:46:10;26.30;23.10
65072;DHT22;51663;52.310;17.016;2022-12-07T20:49:20;26.00;23.30
65072;DHT22;51663;52.310;17.016;2022-12-07T20:52:23;26.30;23.20
65072;DHT22;51663;52.310;17.016;2022-12-07T20:55:27;25.60;23.40
65072;DHT22;51663;52.310;17.016;2022-12-07T20:58:29;25.70;23.60
65072;DHT22;51663;52.310;17.016;2022-12-07T21:01:32;25.70;23.80
65072;DHT22;51663;52.310;17.016;2022-12-07T21:04:34;25.70;23.40